createdAt,value
2022-09-30T00:00:08.341Z,10.90
2022-09-30T00:03:16.266Z,10.90
2022-09-30T00:06:24.391Z,10.70
2022-09-30T00:09:31.777Z,11.70
2022-09-30T00:12:40.052Z,11.60
2022-09-30T00:15:48.395Z,10.60
2022-09-30T00:18:55.762Z,11.50
2022-09-30T00:22:03.664Z,10.70
2022-09-30T00:25:11.505Z,10.30
2022-09-30T00:28:19.281Z,9.90
2022-09-30T00:31:27.480Z,10.80
2022-09-30T00:34:34.876Z,10.50
2022-09-30T00:37:42.591Z,10.20
2022-09-30T00:40:50.396Z,9.80
2022-09-30T00:43:58.064Z,9.10
2022-09-30T00:47:05.716Z,10.00
2022-09-30T00:50:13.856Z,10.00
2022-09-30T00:53:23.497Z,8.90
2022-09-30T00:56:31.320Z,9.60
2022-09-30T00:59:39.170Z,10.90
2022-09-30T01:02:47.381Z,10.80
2022-09-30T01:05:54.763Z,11.80
2022-09-30T01:09:03.160Z,12.20
2022-09-30T01:12:10.488Z,11.40
2022-09-30T01:15:18.731Z,10.80
2022-09-30T01:18:26.651Z,11.20
2022-09-30T01:21:34.642Z,10.80
2022-09-30T01:24:42.552Z,10.40
2022-09-30T01:27:50.635Z,10.30
2022-09-30T01:30:58.073Z,10.80
2022-09-30T01:34:06.264Z,11.10
2022-09-30T01:37:13.574Z,10.70
2022-09-30T01:40:21.974Z,10.60
2022-09-30T01:43:29.796Z,11.10
2022-09-30T01:46:37.591Z,12.00
2022-09-30T01:49:45.436Z,12.30
2022-09-30T01:52:53.486Z,10.90
2022-09-30T01:56:00.807Z,11.00
2022-09-30T01:59:08.973Z,11.10
2022-09-30T02:02:16.472Z,10.50
2022-09-30T02:05:24.726Z,10.20
2022-09-30T02:08:32.681Z,9.90
2022-09-30T02:11:40.502Z,12.00
2022-09-30T02:14:48.363Z,12.30
2022-09-30T02:17:56.631Z,12.40
2022-09-30T02:21:04.057Z,11.80
2022-09-30T02:24:12.290Z,11.60
2022-09-30T02:27:19.642Z,11.20
2022-09-30T02:30:27.912Z,10.90
2022-09-30T02:33:35.343Z,11.70
2022-09-30T02:36:43.113Z,11.60
2022-09-30T02:39:50.946Z,11.60
2022-09-30T02:42:59.191Z,10.80
2022-09-30T02:46:06.525Z,10.50
2022-09-30T02:49:15.005Z,10.60
2022-09-30T02:52:22.223Z,11.90
2022-09-30T02:55:30.196Z,11.60
2022-09-30T02:58:38.056Z,11.80
2022-09-30T03:01:45.918Z,11.50
2022-09-30T03:04:53.597Z,11.30
2022-09-30T03:08:02.230Z,11.60
2022-09-30T03:11:09.570Z,12.60
2022-09-30T03:14:17.677Z,11.80
2022-09-30T03:17:25.065Z,12.40
2022-09-30T03:20:33.289Z,12.00
2022-09-30T03:23:41.059Z,11.20
2022-09-30T03:26:48.899Z,10.60
2022-09-30T03:29:56.760Z,10.80
2022-09-30T03:33:04.846Z,12.70
2022-09-30T03:36:12.269Z,13.00
2022-09-30T03:39:20.533Z,11.90
2022-09-30T03:42:27.901Z,12.40
2022-09-30T03:45:36.124Z,11.30
2022-09-30T03:48:43.960Z,11.70
2022-09-30T03:51:51.594Z,12.20
2022-09-30T03:54:59.470Z,11.20
2022-09-30T03:58:07.922Z,12.70
2022-09-30T04:01:15.275Z,11.70
2022-09-30T04:04:23.527Z,12.30
2022-09-30T04:07:30.839Z,12.20
2022-09-30T04:10:39.193Z,12.40
2022-09-30T04:13:46.955Z,12.30
2022-09-30T04:16:55.007Z,11.70
2022-09-30T04:20:02.667Z,11.20
2022-09-30T04:23:10.487Z,11.60
2022-09-30T04:26:18.150Z,13.10
2022-09-30T04:29:26.416Z,15.00
2022-09-30T04:32:33.818Z,12.90
2022-09-30T04:35:42.408Z,12.20
2022-09-30T04:38:50.279Z,12.40
2022-09-30T04:41:58.159Z,11.70
2022-09-30T04:45:06.043Z,12.60
2022-09-30T04:48:13.910Z,12.70
2022-09-30T04:51:21.667Z,12.80
2022-09-30T04:54:29.952Z,13.00
2022-09-30T04:57:37.391Z,13.30
2022-09-30T05:00:45.784Z,12.80
2022-09-30T05:03:53.536Z,13.00
2022-09-30T05:07:01.302Z,13.40
2022-09-30T05:10:09.077Z,12.30
2022-09-30T05:13:16.745Z,12.90
2022-09-30T05:16:24.785Z,13.00
2022-09-30T05:19:33.345Z,13.60
2022-09-30T05:22:40.644Z,12.30
2022-09-30T05:25:48.776Z,13.60
2022-09-30T05:28:56.356Z,13.10
2022-09-30T05:32:04.143Z,13.50
2022-09-30T05:35:11.813Z,15.00
2022-09-30T05:38:19.598Z,15.60
2022-09-30T05:41:27.417Z,14.60
2022-09-30T05:44:35.467Z,15.70
2022-09-30T05:47:42.903Z,15.60
2022-09-30T05:50:51.215Z,16.00
2022-09-30T05:53:59.168Z,16.00
2022-09-30T05:57:06.998Z,16.60
2022-09-30T06:00:14.929Z,16.40
2022-09-30T06:03:22.850Z,17.00
2022-09-30T06:06:30.836Z,17.20
2022-09-30T06:09:39.332Z,17.10
2022-09-30T06:12:47.015Z,17.40
2022-09-30T06:15:55.502Z,18.70
2022-09-30T06:19:03.511Z,16.90
2022-09-30T06:22:11.523Z,17.40
2022-09-30T06:25:19.602Z,17.80
2022-09-30T06:28:27.770Z,16.80
2022-09-30T06:31:36.117Z,18.20
2022-09-30T06:34:44.382Z,17.20
2022-09-30T06:37:51.945Z,17.50
2022-09-30T06:41:00.635Z,17.80
2022-09-30T06:44:09.370Z,17.10
2022-09-30T06:47:24.858Z,17.20
2022-09-30T06:50:25.772Z,18.40
2022-09-30T06:53:23.170Z,18.10
2022-09-30T06:56:31.097Z,17.60
2022-09-30T06:59:39.514Z,18.00
2022-09-30T07:02:46.945Z,17.20
2022-09-30T07:05:55.542Z,17.30
2022-09-30T07:09:03.081Z,16.90
2022-09-30T07:12:11.229Z,15.10
2022-09-30T07:15:19.091Z,16.10
2022-09-30T07:18:26.831Z,15.80
2022-09-30T07:21:34.502Z,15.50
2022-09-30T07:24:43.142Z,15.40
2022-09-30T07:27:50.441Z,16.30
2022-09-30T07:31:19.846Z,16.00
2022-09-30T07:34:03.265Z,15.50
2022-09-30T07:37:11.602Z,15.70
2022-09-30T07:40:19.527Z,16.60
2022-09-30T07:43:27.385Z,15.80
2022-09-30T07:46:35.325Z,15.90
2022-09-30T07:49:43.756Z,15.90
2022-09-30T07:52:51.106Z,16.10
2022-09-30T07:55:59.388Z,16.20
2022-09-30T07:59:06.836Z,16.10
2022-09-30T08:02:15.257Z,16.00
2022-09-30T08:05:23.125Z,15.90
2022-09-30T08:08:30.929Z,13.60
2022-09-30T08:11:38.640Z,13.50
2022-09-30T08:14:46.581Z,13.50
2022-09-30T08:17:54.051Z,13.10
2022-09-30T08:21:02.422Z,11.70
2022-09-30T08:24:09.812Z,11.80
2022-09-30T08:27:18.038Z,11.80
2022-09-30T08:30:26.273Z,11.50
2022-09-30T08:33:34.371Z,12.40
2022-09-30T08:36:42.445Z,11.70
2022-09-30T08:39:50.967Z,11.80
2022-09-30T08:42:58.639Z,10.80
2022-09-30T08:46:07.783Z,11.60
2022-09-30T08:49:15.337Z,11.80
2022-09-30T08:52:30.454Z,11.30
2022-09-30T08:55:28.887Z,12.20
2022-09-30T08:58:37.261Z,11.40
2022-09-30T09:01:45.131Z,12.70
2022-09-30T09:04:53.305Z,12.80
2022-09-30T09:08:01.110Z,12.10
2022-09-30T09:11:09.678Z,12.50
2022-09-30T09:14:17.535Z,11.00
2022-09-30T09:17:25.589Z,12.60
2022-09-30T09:20:33.915Z,12.40
2022-09-30T09:23:41.205Z,11.90
2022-09-30T09:26:49.437Z,12.60
2022-09-30T09:29:57.717Z,13.60
2022-09-30T09:33:05.007Z,12.80
2022-09-30T09:36:13.078Z,13.40
2022-09-30T09:39:20.903Z,12.30
2022-09-30T09:42:28.672Z,11.60
2022-09-30T09:45:36.896Z,11.30
2022-09-30T09:48:44.556Z,11.40
2022-09-30T09:51:52.071Z,11.50
2022-09-30T09:55:00.253Z,11.30
2022-09-30T09:58:08.154Z,10.30
2022-09-30T10:01:15.960Z,10.60
2022-09-30T10:04:23.773Z,9.80
2022-09-30T10:07:32.056Z,12.00
2022-09-30T10:10:39.826Z,12.60
2022-09-30T10:13:47.666Z,11.30
2022-09-30T10:16:55.587Z,13.30
2022-09-30T10:20:02.979Z,13.30
2022-09-30T10:23:11.230Z,10.30
2022-09-30T10:26:19.096Z,7.10
2022-09-30T10:29:26.620Z,6.80
2022-09-30T10:32:34.792Z,7.10
2022-09-30T10:35:42.652Z,6.90
2022-09-30T10:38:50.113Z,6.40
2022-09-30T10:41:58.274Z,5.80
2022-09-30T10:45:05.975Z,5.90
2022-09-30T10:48:13.821Z,5.30
2022-09-30T10:51:22.144Z,4.80
2022-09-30T10:54:29.737Z,4.60
2022-09-30T10:57:37.537Z,3.90
2022-09-30T11:00:45.802Z,5.60
2022-09-30T11:03:53.783Z,5.00
2022-09-30T11:07:01.546Z,6.20
2022-09-30T11:10:09.201Z,4.60
2022-09-30T11:13:16.998Z,4.00
2022-09-30T11:16:25.155Z,4.10
2022-09-30T11:19:33.038Z,3.90
2022-09-30T11:22:40.895Z,4.30
2022-09-30T11:25:48.726Z,3.90
2022-09-30T11:28:56.435Z,4.70
2022-09-30T11:32:04.725Z,4.20
2022-09-30T11:35:12.170Z,4.20
2022-09-30T11:38:20.336Z,4.40
2022-09-30T11:41:28.034Z,4.30
2022-09-30T11:44:35.603Z,3.90
2022-09-30T11:47:43.743Z,3.70
2022-09-30T11:50:51.982Z,3.20
2022-09-30T11:53:59.484Z,3.10
2022-09-30T11:57:07.873Z,2.50
2022-09-30T12:00:15.930Z,2.40
2022-09-30T12:03:23.314Z,2.50
2022-09-30T12:06:31.699Z,1.70
2022-09-30T12:09:39.758Z,2.00
2022-09-30T12:12:47.549Z,2.70
2022-09-30T12:15:55.710Z,1.60
2022-09-30T12:19:03.471Z,2.10
2022-09-30T12:22:11.224Z,1.80
2022-09-30T12:25:18.808Z,1.60
2022-09-30T12:28:27.113Z,1.90
2022-09-30T12:31:34.979Z,1.80
2022-09-30T12:34:42.595Z,3.00
2022-09-30T12:37:50.766Z,1.30
2022-09-30T12:40:58.666Z,1.60
2022-09-30T12:44:06.408Z,1.40
2022-09-30T12:47:14.480Z,0.90
2022-09-30T12:50:21.852Z,0.80
2022-09-30T12:53:30.204Z,0.70
2022-09-30T12:56:38.502Z,0.60
2022-09-30T12:59:45.784Z,0.60
2022-09-30T13:02:54.104Z,0.60
2022-09-30T13:06:02.145Z,0.60
2022-09-30T13:09:09.635Z,0.40
2022-09-30T13:12:17.375Z,0.80
2022-09-30T13:15:25.118Z,0.30
2022-09-30T13:18:32.859Z,0.40
2022-09-30T13:21:40.750Z,0.40
2022-09-30T13:24:48.588Z,0.50
2022-09-30T13:27:56.413Z,0.50
2022-09-30T13:31:04.404Z,0.50
2022-09-30T13:34:12.176Z,0.30
2022-09-30T13:37:20.187Z,0.50
2022-09-30T13:40:49.893Z,0.30
2022-09-30T13:43:33.248Z,0.30
2022-09-30T13:46:41.125Z,0.50
2022-09-30T13:49:48.957Z,0.40
2022-09-30T13:52:57.079Z,0.40
2022-09-30T13:56:04.979Z,0.40
2022-09-30T13:59:12.603Z,0.50
2022-09-30T14:02:22.444Z,0.30
2022-09-30T14:05:30.059Z,0.40
2022-09-30T14:08:38.145Z,0.60
2022-09-30T14:11:46.277Z,0.30
2022-09-30T14:14:53.656Z,0.50
2022-09-30T14:18:04.442Z,0.50
2022-09-30T14:21:02.908Z,0.30
2022-09-30T14:24:10.318Z,0.30
2022-09-30T14:27:18.432Z,0.20
2022-09-30T14:30:26.560Z,0.40
2022-09-30T14:33:33.973Z,0.20
2022-09-30T14:37:31.405Z,0.40
2022-09-30T14:40:39.652Z,0.60
2022-09-30T14:43:48.121Z,0.30
2022-09-30T14:46:55.709Z,0.20
2022-09-30T14:50:03.275Z,0.20
2022-09-30T14:53:11.265Z,0.50
2022-09-30T14:56:19.120Z,0.20
2022-09-30T14:59:26.818Z,0.50
2022-09-30T15:02:35.108Z,0.40
2022-09-30T15:05:42.809Z,0.30
2022-09-30T15:08:50.629Z,0.40
2022-09-30T15:11:58.850Z,0.50
2022-09-30T15:15:06.468Z,0.30
2022-09-30T15:18:14.643Z,0.60
2022-09-30T15:21:22.481Z,0.60
2022-09-30T15:24:30.303Z,0.40
2022-09-30T15:27:38.123Z,0.40
2022-09-30T15:30:45.431Z,0.40
2022-09-30T15:33:53.136Z,0.40
2022-09-30T15:37:00.885Z,0.50
2022-09-30T15:40:08.190Z,0.50
2022-09-30T15:43:16.422Z,0.50
2022-09-30T15:46:24.225Z,0.60
2022-09-30T15:49:31.578Z,0.50
2022-09-30T15:52:39.351Z,1.00
2022-09-30T15:55:47.320Z,0.80
2022-09-30T15:58:55.113Z,0.60
2022-09-30T16:02:03.161Z,1.50
2022-09-30T16:05:11.345Z,0.50
2022-09-30T16:08:19.151Z,0.50
2022-09-30T16:11:26.937Z,0.40
2022-09-30T16:14:34.559Z,0.40
2022-09-30T16:17:42.299Z,0.70
2022-09-30T16:20:49.990Z,0.50
2022-09-30T16:23:58.180Z,0.30
2022-09-30T16:27:05.990Z,0.70
2022-09-30T16:30:13.626Z,0.70
2022-09-30T16:33:21.880Z,0.70
2022-09-30T16:36:29.526Z,0.70
2022-09-30T16:39:37.825Z,1.10
2022-09-30T16:42:45.753Z,1.50
2022-09-30T16:45:53.258Z,1.40
2022-09-30T16:49:01.576Z,1.50
2022-09-30T16:52:09.968Z,1.30
2022-09-30T16:55:17.532Z,0.70
2022-09-30T16:58:25.643Z,0.70
2022-09-30T17:01:33.889Z,0.60
2022-09-30T17:04:41.613Z,0.70
2022-09-30T17:07:49.412Z,0.90
2022-09-30T17:10:57.380Z,1.00
2022-09-30T17:14:05.123Z,1.10
2022-09-30T17:17:13.929Z,0.90
2022-09-30T17:20:22.286Z,1.40
2022-09-30T17:23:29.655Z,1.10
2022-09-30T17:26:37.897Z,2.30
2022-09-30T17:29:45.541Z,1.90
2022-09-30T17:32:53.468Z,2.20
2022-09-30T17:36:01.239Z,2.70
2022-09-30T17:39:09.044Z,2.90
2022-09-30T17:42:16.680Z,2.00
2022-09-30T17:45:24.943Z,2.40
2022-09-30T17:48:33.108Z,3.00
2022-09-30T17:51:40.844Z,2.80
2022-09-30T17:54:52.198Z,3.30
2022-09-30T17:57:49.393Z,3.90
2022-09-30T18:00:57.165Z,3.40
2022-09-30T18:04:05.274Z,3.00
2022-09-30T18:07:13.105Z,2.50
2022-09-30T18:10:20.926Z,3.10
2022-09-30T18:13:29.096Z,3.80
2022-09-30T18:16:36.740Z,3.70
2022-09-30T18:19:45.217Z,4.30
2022-09-30T18:22:53.373Z,3.80
2022-09-30T18:26:00.790Z,3.70
2022-09-30T18:29:08.920Z,3.00
2022-09-30T18:32:17.131Z,3.30
2022-09-30T18:35:24.593Z,2.90
2022-09-30T18:38:32.870Z,3.00
2022-09-30T18:41:45.338Z,2.40
2022-09-30T18:44:42.651Z,3.20
2022-09-30T18:47:50.477Z,2.90
2022-09-30T18:50:58.586Z,3.00
2022-09-30T18:54:07.436Z,3.70
2022-09-30T18:57:15.877Z,3.60
2022-09-30T19:00:23.697Z,3.60
2022-09-30T19:03:31.520Z,4.60
2022-09-30T19:06:39.869Z,4.00
2022-09-30T19:09:47.589Z,4.50
2022-09-30T19:12:55.068Z,3.40
2022-09-30T19:16:02.725Z,2.80
2022-09-30T19:19:10.663Z,2.50
2022-09-30T19:22:18.606Z,2.60
2022-09-30T19:25:26.623Z,2.50
2022-09-30T19:28:34.863Z,2.30
2022-09-30T19:31:42.866Z,2.30
2022-09-30T19:35:00.947Z,2.70
2022-09-30T19:38:02.675Z,2.40
2022-09-30T19:40:59.627Z,3.10
2022-09-30T19:44:07.725Z,2.50
2022-09-30T19:47:15.632Z,2.30
2022-09-30T19:50:23.058Z,2.30
2022-09-30T19:53:31.037Z,2.30
2022-09-30T19:56:39.089Z,2.20
2022-09-30T19:59:46.857Z,2.20
2022-09-30T20:02:54.780Z,2.10
2022-09-30T20:06:02.207Z,2.20
2022-09-30T20:09:11.223Z,2.90
2022-09-30T20:12:19.504Z,2.50
2022-09-30T20:15:27.221Z,2.70
2022-09-30T20:18:35.455Z,2.50
2022-09-30T20:21:43.743Z,2.40
2022-09-30T20:24:51.326Z,2.90
2022-09-30T20:27:59.495Z,3.30
2022-09-30T20:31:07.027Z,3.10
2022-09-30T20:34:15.298Z,3.20
2022-09-30T20:37:23.418Z,3.00
2022-09-30T20:40:31.099Z,3.40
2022-09-30T20:43:38.888Z,3.40
2022-09-30T20:46:46.980Z,3.60
2022-09-30T20:49:55.046Z,3.90
2022-09-30T20:53:02.800Z,3.60
2022-09-30T20:56:10.514Z,3.20
2022-09-30T20:59:18.448Z,3.70
2022-09-30T21:02:26.142Z,3.20
2022-09-30T21:05:33.764Z,3.90
2022-09-30T21:08:41.894Z,4.50
2022-09-30T21:11:49.684Z,4.20
2022-09-30T21:14:57.455Z,4.60
2022-09-30T21:18:05.561Z,5.00
2022-09-30T21:21:12.926Z,5.10
2022-09-30T21:24:20.632Z,5.10
2022-09-30T21:27:28.666Z,5.70
2022-09-30T21:30:35.905Z,5.30
2022-09-30T21:33:44.000Z,5.80
2022-09-30T21:36:52.189Z,5.50
2022-09-30T21:39:59.600Z,4.40
2022-09-30T21:43:07.301Z,4.30
2022-09-30T21:46:15.327Z,4.30
2022-09-30T21:49:22.990Z,4.60
2022-09-30T21:52:32.961Z,5.30
2022-09-30T21:55:40.819Z,5.60
2022-09-30T21:58:48.604Z,4.80
2022-09-30T22:01:56.981Z,5.10
2022-09-30T22:05:04.424Z,4.80
2022-09-30T22:08:12.194Z,4.20
2022-09-30T22:11:20.416Z,4.80
2022-09-30T22:14:28.173Z,5.20
2022-09-30T22:17:35.826Z,5.00
2022-09-30T22:20:44.458Z,4.80
2022-09-30T22:23:52.607Z,4.70
2022-09-30T22:27:03.095Z,6.10
2022-09-30T22:30:10.488Z,5.50
2022-09-30T22:33:18.748Z,5.30
2022-09-30T22:36:26.149Z,5.20
2022-09-30T22:39:33.720Z,5.00
2022-09-30T22:42:41.554Z,4.80
2022-09-30T22:45:48.930Z,4.50
2022-09-30T22:48:57.148Z,4.70
2022-09-30T22:52:05.531Z,4.30
2022-09-30T22:55:12.834Z,4.10
2022-09-30T22:58:20.874Z,4.00
2022-09-30T23:01:28.545Z,4.10
2022-09-30T23:04:36.394Z,4.20
2022-09-30T23:07:44.474Z,3.80
2022-09-30T23:10:52.385Z,4.50
2022-09-30T23:14:00.094Z,3.30
2022-09-30T23:17:08.079Z,3.10
2022-09-30T23:20:15.917Z,3.20
2022-09-30T23:23:23.588Z,3.50
2022-09-30T23:26:31.851Z,3.30
2022-09-30T23:29:39.619Z,3.70
2022-09-30T23:32:47.377Z,3.60
2022-09-30T23:35:55.028Z,3.40
2022-09-30T23:39:03.165Z,3.10
2022-09-30T23:42:10.802Z,3.50
2022-09-30T23:45:18.432Z,3.40
2022-09-30T23:48:26.053Z,3.70
2022-09-30T23:51:34.291Z,3.20
2022-09-30T23:54:42.205Z,3.50
2022-09-30T23:57:49.914Z,3.80
